Time;durP1;ratioP1;P1;durP2;ratioP2;P2;SDS_P1;SDS_P2;PMS_P1;PMS_P2;Temp;Humidity;BMP_temperature;BMP_pressure;BME280_temperature;BME280_humidity;BME280_pressure;Samples;Min_cycle;Max_cycle;Signal;HPM_P1;HPM_P2
2022/12/18 00:02:16;;;;;;;33.23;14.40;;;-3.10;65.70;;;;;;4972710;28;45814;-64
2022/12/18 00:04:42;;;;;;;35.10;16.20;;;-3.00;66.60;;;;;;4970670;28;46523;-64
2022/12/18 00:07:07;;;;;;;28.47;13.67;;;-3.00;65.30;;;;;;4970458;28;46352;-64
2022/12/18 00:09:33;;;;;;;29.60;15.87;;;-2.90;65.20;;;;;;4970813;28;46597;-64
2022/12/18 00:11:59;;;;;;;30.70;13.63;;;-2.90;65.00;;;;;;4975035;28;46218;-65
2022/12/18 00:14:24;;;;;;;32.03;14.40;;;-2.90;64.90;;;;;;4970461;28;46460;-64
2022/12/18 00:16:50;;;;;;;28.67;12.97;;;-2.80;64.90;;;;;;4971582;28;46427;-64
2022/12/18 00:19:15;;;;;;;33.00;13.10;;;-2.70;64.80;;;;;;4971697;28;46339;-64
2022/12/18 00:21:42;;;;;;;28.30;13.20;;;-2.80;64.80;;;;;;4971778;28;46380;-65
2022/12/18 00:24:09;;;;;;;30.13;12.95;;;-2.80;65.10;;;;;;4969144;28;46383;-63
2022/12/18 00:26:36;;;;;;;36.00;14.05;;;-2.80;65.40;;;;;;4970094;28;46321;-64
2022/12/18 00:29:13;;;;;;;30.27;13.25;;;-2.80;65.00;;;;;;4968610;28;47510;-64
2022/12/18 00:31:39;;;;;;;29.10;13.20;;;-2.80;65.00;;;;;;4969087;28;46073;-64
2022/12/18 00:34:04;;;;;;;26.87;11.73;;;-2.90;66.20;;;;;;4968113;28;45865;-64
2022/12/18 00:36:33;;;;;;;31.50;14.07;;;-2.80;65.00;;;;;;4969365;28;46433;-64
2022/12/18 00:39:00;;;;;;;30.98;14.80;;;-2.60;65.00;;;;;;4971910;28;46586;-64
2022/12/18 00:44:14;;;;;;;35.40;15.98;;;-2.40;64.50;;;;;;4972812;28;46436;-64
2022/12/18 00:46:40;;;;;;;41.10;17.48;;;-2.40;64.10;;;;;;4970285;28;46472;-65
2022/12/18 00:49:07;;;;;;;28.92;14.73;;;-2.30;63.70;;;;;;4969635;28;46445;-64
2022/12/18 00:51:32;;;;;;;33.50;14.32;;;-2.30;63.50;;;;;;4968896;28;46138;-64
2022/12/18 00:53:58;;;;;;;32.77;13.90;;;-2.20;63.40;;;;;;4970374;28;46356;-64
2022/12/18 00:56:24;;;;;;;30.67;13.90;;;-2.20;63.30;;;;;;4968472;28;46385;-63
2022/12/18 00:58:50;;;;;;;30.73;13.95;;;-2.20;63.50;;;;;;4966997;28;47182;-64
2022/12/18 01:01:16;;;;;;;35.73;15.37;;;-2.30;63.70;;;;;;4970529;28;46572;-63
2022/12/18 01:03:42;;;;;;;31.35;14.85;;;-2.20;63.60;;;;;;4969692;28;46499;-63
2022/12/18 01:06:11;;;;;;;34.70;15.90;;;-2.20;63.60;;;;;;4970527;28;46360;-64
2022/12/18 01:08:37;;;;;;;28.40;12.70;;;-2.20;63.80;;;;;;4971092;28;46466;-65
2022/12/18 01:11:12;;;;;;;26.67;13.38;;;-2.30;63.20;;;;;;4970609;28;46600;-64
2022/12/18 01:13:39;;;;;;;27.20;12.63;;;-2.30;64.40;;;;;;4969645;28;46394;-65
2022/12/18 01:16:05;;;;;;;26.23;12.20;;;-2.40;64.80;;;;;;4969710;28;46409;-65
2022/12/18 01:18:31;;;;;;;28.67;12.52;;;-2.50;65.10;;;;;;4969937;28;47192;-64
2022/12/18 01:20:57;;;;;;;25.87;10.73;;;-2.60;64.60;;;;;;4969819;28;46343;-65
2022/12/18 01:23:23;;;;;;;29.23;13.77;;;-2.60;65.60;;;;;;4967801;28;46585;-64
2022/12/18 01:25:48;;;;;;;29.67;12.23;;;-2.60;65.80;;;;;;4969456;28;46433;-64
2022/12/18 01:28:14;;;;;;;27.57;12.30;;;-2.60;65.70;;;;;;4965985;28;46384;-64
2022/12/18 01:30:39;;;;;;;26.67;12.43;;;-2.50;65.60;;;;;;4969035;28;46447;-64
2022/12/18 01:33:05;;;;;;;28.93;13.03;;;-2.50;65.50;;;;;;4968854;28;45913;-64
2022/12/18 01:35:31;;;;;;;31.00;13.93;;;-2.50;65.30;;;;;;4968905;28;46587;-64
2022/12/18 01:37:57;;;;;;;32.42;13.88;;;-2.50;65.50;;;;;;4967793;28;46478;-64
2022/12/18 01:40:23;;;;;;;31.00;13.27;;;-2.50;65.70;;;;;;4966451;28;45801;-65
2022/12/18 01:42:53;;;;;;;29.38;11.90;;;-2.50;65.80;;;;;;4972725;28;46350;-64
2022/12/18 01:45:18;;;;;;;26.25;12.73;;;-2.60;65.60;;;;;;4971157;28;46599;-64
2022/12/18 01:48:06;;;;;;;30.50;13.23;;;-2.60;65.80;;;;;;4968676;28;47210;-64
2022/12/18 01:50:39;;;;;;;29.20;12.45;;;-2.70;66.20;;;;;;4969926;28;46492;-64
2022/12/18 01:53:22;;;;;;;27.88;13.35;;;-2.70;66.60;;;;;;4967605;28;46446;-64
2022/12/18 01:55:54;;;;;;;26.17;13.73;;;-2.70;68.10;;;;;;4981830;28;46603;-64
2022/12/18 01:58:24;;;;;;;24.65;12.30;;;-2.70;67.00;;;;;;4969267;28;46511;-64
2022/12/18 02:00:49;;;;;;;30.20;14.27;;;-2.70;66.00;;;;;;4970117;28;46385;-64
2022/12/18 02:03:15;;;;;;;30.23;13.77;;;-2.70;67.00;;;;;;4969616;28;46598;-64
2022/12/18 02:06:07;;;;;;;29.27;13.90;;;-2.60;66.80;;;;;;4969811;28;46498;-64
2022/12/18 02:08:50;;;;;;;34.40;14.30;;;-2.60;66.60;;;;;;4969700;28;47627;-64
2022/12/18 02:11:27;;;;;;;28.88;13.07;;;-2.50;66.30;;;;;;4969602;28;46473;-64
2022/12/18 02:14:08;;;;;;;27.70;13.80;;;-2.50;66.20;;;;;;4967397;28;45946;-63
2022/12/18 02:17:06;;;;;;;30.20;14.55;;;-2.40;65.90;;;;;;4968862;28;46588;-63
2022/12/18 02:20:10;;;;;;;32.85;15.13;;;-2.40;65.70;;;;;;4968609;28;47112;-63
2022/12/18 02:22:48;;;;;;;31.52;13.95;;;-2.40;65.80;;;;;;4968467;28;46276;-63
2022/12/18 02:25:51;;;;;;;39.42;18.88;;;-2.40;65.80;;;;;;4967624;28;46761;-63
2022/12/18 02:28:21;;;;;;;51.47;19.55;;;-2.40;65.80;;;;;;4971443;28;46584;-63
2022/12/18 02:30:50;;;;;;;48.83;18.63;;;-2.50;65.90;;;;;;4968843;28;46614;-63
2022/12/18 02:33:17;;;;;;;51.95;19.48;;;-2.40;65.90;;;;;;4971140;28;46014;-63
2022/12/18 02:35:45;;;;;;;43.63;19.02;;;-2.40;65.90;;;;;;4978249;28;46602;-64
2022/12/18 02:38:12;;;;;;;65.25;21.48;;;-2.40;65.80;;;;;;4968792;28;46447;-63
2022/12/18 02:40:39;;;;;;;44.50;19.13;;;-2.40;65.70;;;;;;4971236;28;46590;-63
2022/12/18 02:43:14;;;;;;;48.13;19.63;;;-2.50;65.90;;;;;;4976341;28;46598;-64
2022/12/18 02:45:54;;;;;;;46.85;19.17;;;-2.40;66.10;;;;;;4970959;28;45792;-63
2022/12/18 02:48:34;;;;;;;226.55;91.05;;;-2.40;66.00;;;;;;4974705;28;46424;-63
2022/12/18 02:51:10;;;;;;;66.72;26.88;;;-2.30;65.00;;;;;;4968954;28;47361;-64
2022/12/18 02:53:44;;;;;;;38.88;17.90;;;-2.30;65.90;;;;;;4968637;28;46512;-64
2022/12/18 02:56:28;;;;;;;52.17;20.55;;;-2.30;65.90;;;;;;4970530;28;46427;-63
2022/12/18 02:59:00;;;;;;;52.63;19.17;;;-2.30;65.90;;;;;;4970897;28;46444;-63
2022/12/18 03:01:50;;;;;;;49.70;18.10;;;-2.30;65.90;;;;;;4971651;28;47141;-64
2022/12/18 03:04:31;;;;;;;46.58;18.33;;;-2.40;65.90;;;;;;4971041;28;46396;-63
2022/12/18 03:07:02;;;;;;;49.95;19.15;;;-2.50;66.20;;;;;;4974740;28;46447;-63
2022/12/18 03:09:32;;;;;;;48.15;20.55;;;-2.60;67.40;;;;;;4986142;28;46525;-63
2022/12/18 03:12:24;;;;;;;53.50;21.80;;;-2.60;66.30;;;;;;4972070;28;46518;-63
2022/12/18 03:14:58;;;;;;;52.20;19.98;;;-2.50;66.00;;;;;;4973553;28;46675;-63
2022/12/18 03:17:26;;;;;;;48.30;20.58;;;-2.40;66.00;;;;;;4971219;28;46480;-63
2022/12/18 03:19:55;;;;;;;45.65;20.77;;;-2.60;65.80;;;;;;4976454;28;46114;-65
2022/12/18 03:22:23;;;;;;;40.50;18.08;;;-2.60;66.10;;;;;;4971263;28;46637;-63
2022/12/18 03:24:49;;;;;;;50.72;18.65;;;-2.70;66.30;;;;;;4972337;28;46776;-63
2022/12/18 03:27:19;;;;;;;49.53;17.67;;;-2.80;66.50;;;;;;4974419;28;46387;-63
2022/12/18 03:29:58;;;;;;;46.50;18.25;;;-2.80;66.90;;;;;;4973654;28;45857;-63
2022/12/18 03:32:30;;;;;;;44.60;16.70;;;-2.80;66.50;;;;;;4970334;28;46476;-64
2022/12/18 03:35:02;;;;;;;49.88;17.80;;;-2.80;66.80;;;;;;4973019;28;46293;-63
2022/12/18 03:37:31;;;;;;;55.17;22.27;;;-2.90;66.80;;;;;;4971391;28;46381;-65
2022/12/18 03:39:57;;;;;;;37.63;15.90;;;-3.00;66.70;;;;;;4970216;28;46495;-63
2022/12/18 03:42:43;;;;;;;40.90;15.90;;;-2.90;66.80;;;;;;4968863;28;46243;-63
2022/12/18 03:45:27;;;;;;;44.83;16.77;;;-2.80;66.50;;;;;;4968829;28;46709;-63
2022/12/18 03:48:10;;;;;;;38.33;15.95;;;-2.80;64.80;;;;;;4973660;28;46382;-63
2022/12/18 03:50:56;;;;;;;49.03;17.20;;;-2.70;66.00;;;;;;4969831;28;46413;-63
2022/12/18 03:53:35;;;;;;;48.42;17.75;;;-2.80;65.80;;;;;;4971355;28;46491;-63
2022/12/18 03:56:01;;;;;;;42.65;15.38;;;-2.70;65.90;;;;;;4970983;28;46483;-63
2022/12/18 03:58:30;;;;;;;42.53;16.88;;;-2.80;66.00;;;;;;4968819;28;45962;-63
2022/12/18 04:00:59;;;;;;;46.75;18.42;;;-2.80;65.00;;;;;;4971666;28;46527;-64
2022/12/18 04:03:28;;;;;;;34.22;14.40;;;-2.70;66.00;;;;;;4970409;28;46456;-64
2022/12/18 04:05:56;;;;;;;44.58;16.92;;;-2.70;67.20;;;;;;4970520;28;46649;-64
2022/12/18 04:08:22;;;;;;;37.47;15.90;;;-2.80;65.90;;;;;;4970252;28;46410;-65
2022/12/18 04:10:48;;;;;;;39.72;16.95;;;-2.80;65.80;;;;;;4973811;28;46905;-64
2022/12/18 04:13:27;;;;;;;44.77;16.27;;;-2.80;65.90;;;;;;4969795;28;47267;-64
2022/12/18 04:15:53;;;;;;;43.78;16.75;;;-2.70;65.90;;;;;;4969523;28;46491;-63
2022/12/18 04:18:19;;;;;;;48.00;16.80;;;-2.60;65.80;;;;;;4972922;28;45910;-64
2022/12/18 04:20:45;;;;;;;39.60;15.52;;;-2.60;65.60;;;;;;4971189;28;46691;-63
2022/12/18 04:23:10;;;;;;;38.40;16.53;;;-2.70;65.80;;;;;;4967005;28;46396;-62
2022/12/18 04:25:36;;;;;;;33.70;13.97;;;-2.60;65.50;;;;;;4969625;28;46360;-62
2022/12/18 04:28:02;;;;;;;45.37;17.50;;;-2.50;65.30;;;;;;4968678;28;46415;-63
2022/12/18 04:30:27;;;;;;;46.30;16.80;;;-2.50;65.10;;;;;;4968934;28;46085;-63
2022/12/18 04:32:53;;;;;;;37.10;15.40;;;-2.50;65.30;;;;;;4968621;28;46459;-63
2022/12/18 04:35:18;;;;;;;38.20;15.63;;;-2.40;65.10;;;;;;4969489;28;46461;-63
2022/12/18 04:37:44;;;;;;;32.30;14.47;;;-2.40;65.00;;;;;;4970070;28;46460;-63
2022/12/18 04:40:10;;;;;;;31.00;12.93;;;-2.50;65.00;;;;;;4969515;28;45950;-63
2022/12/18 04:42:36;;;;;;;42.38;15.15;;;-2.60;65.10;;;;;;4970062;28;46400;-62
2022/12/18 04:45:01;;;;;;;37.17;14.07;;;-2.60;65.30;;;;;;4966429;28;46492;-62
2022/12/18 04:47:27;;;;;;;31.30;13.83;;;-2.50;65.20;;;;;;4966011;28;46447;-62
2022/12/18 04:49:52;;;;;;;34.60;14.90;;;-2.40;65.10;;;;;;4970046;28;45872;-63
2022/12/18 04:52:18;;;;;;;41.87;15.03;;;-2.50;65.00;;;;;;4968423;28;46485;-63
2022/12/18 04:54:44;;;;;;;37.67;15.20;;;-2.50;65.10;;;;;;4966005;28;46372;-63
2022/12/18 04:57:09;;;;;;;35.97;15.17;;;-2.40;65.00;;;;;;4967421;28;45865;-62
2022/12/18 04:59:35;;;;;;;26.13;11.70;;;-2.40;65.00;;;;;;4974358;28;46485;-63
2022/12/18 05:02:01;;;;;;;33.40;13.63;;;-2.40;65.10;;;;;;4966610;28;46495;-63
2022/12/18 05:04:26;;;;;;;32.60;13.30;;;-2.50;65.40;;;;;;4967522;28;46460;-62
2022/12/18 05:06:52;;;;;;;32.93;13.43;;;-2.50;65.30;;;;;;4970132;28;46423;-63
2022/12/18 05:09:17;;;;;;;31.30;14.27;;;-2.50;65.40;;;;;;4965805;28;46707;-63
2022/12/18 05:11:43;;;;;;;30.53;13.37;;;-2.50;65.30;;;;;;4968840;28;47371;-63
2022/12/18 05:14:08;;;;;;;29.60;13.97;;;-2.40;65.20;;;;;;4967580;28;46443;-64
2022/12/18 05:16:34;;;;;;;35.70;14.73;;;-2.30;65.00;;;;;;4970932;28;46392;-64
2022/12/18 05:19:00;;;;;;;49.67;19.73;;;-2.30;64.90;;;;;;4982281;28;46464;-63
2022/12/18 05:21:25;;;;;;;30.20;13.43;;;-2.40;65.10;;;;;;4967876;28;47473;-62
2022/12/18 05:23:51;;;;;;;34.30;14.17;;;-2.40;65.10;;;;;;4967712;28;45873;-61
2022/12/18 05:26:18;;;;;;;28.23;13.30;;;-2.40;65.20;;;;;;4967415;28;46531;-63
2022/12/18 05:28:44;;;;;;;31.50;13.50;;;-2.40;65.30;;;;;;4966524;28;46393;-63
2022/12/18 05:31:09;;;;;;;35.43;13.80;;;-2.60;64.90;;;;;;4966669;28;48551;-64
2022/12/18 05:33:35;;;;;;;27.02;13.45;;;-2.60;65.90;;;;;;4967236;28;45832;-64
2022/12/18 05:36:04;;;;;;;27.83;12.67;;;-2.50;66.00;;;;;;4968782;28;46584;-62
2022/12/18 05:38:31;;;;;;;30.67;12.70;;;-2.70;66.00;;;;;;4970689;28;46405;-64
2022/12/18 05:40:57;;;;;;;29.75;13.20;;;-2.80;65.50;;;;;;4965934;28;47498;-64
2022/12/18 05:43:24;;;;;;;30.83;12.93;;;-2.80;66.50;;;;;;4967663;28;45888;-63
2022/12/18 05:45:50;;;;;;;36.65;13.23;;;-2.80;66.30;;;;;;4966456;28;46219;-62
2022/12/18 05:48:17;;;;;;;25.25;11.57;;;-2.80;65.90;;;;;;4967566;28;46416;-62
2022/12/18 05:50:45;;;;;;;31.58;13.05;;;-2.80;65.70;;;;;;4965835;28;46660;-62
2022/12/18 05:53:12;;;;;;;29.25;12.45;;;-2.90;65.70;;;;;;4966362;28;46907;-64
2022/12/18 05:55:39;;;;;;;31.35;11.90;;;-2.80;66.00;;;;;;4967190;28;46642;-62
2022/12/18 05:58:06;;;;;;;29.95;12.25;;;-2.80;65.70;;;;;;4969466;28;46715;-62
2022/12/18 06:00:34;;;;;;;31.00;14.32;;;-2.80;65.50;;;;;;4972422;28;47052;-63
2022/12/18 06:03:00;;;;;;;32.35;13.07;;;-2.80;65.40;;;;;;4974096;28;46550;-63
2022/12/18 06:05:27;;;;;;;31.13;12.95;;;-2.80;65.50;;;;;;4972318;28;46379;-62
2022/12/18 06:07:53;;;;;;;25.27;11.75;;;-2.60;65.40;;;;;;4970621;28;46431;-63
2022/12/18 06:10:18;;;;;;;33.38;13.90;;;-2.70;65.20;;;;;;4974196;28;46390;-62
2022/12/18 06:12:44;;;;;;;29.27;12.67;;;-2.70;65.30;;;;;;4973793;28;46412;-63
2022/12/18 06:15:09;;;;;;;24.90;12.00;;;-2.70;65.20;;;;;;4984967;28;46385;-63
2022/12/18 06:17:36;;;;;;;30.63;14.33;;;-2.60;65.00;;;;;;4973510;28;46434;-63
2022/12/18 06:20:03;;;;;;;36.85;13.60;;;-2.60;65.00;;;;;;4973590;28;48242;-63
2022/12/18 06:22:31;;;;;;;30.40;13.18;;;-2.60;65.00;;;;;;4970746;28;46445;-63
2022/12/18 06:24:57;;;;;;;34.65;14.10;;;-2.50;64.80;;;;;;4969855;28;46408;-62
2022/12/18 06:27:23;;;;;;;34.80;14.47;;;-2.40;64.60;;;;;;4971181;28;46377;-63
2022/12/18 06:29:49;;;;;;;40.67;16.20;;;-2.50;64.80;;;;;;4973162;28;46470;-62
2022/12/18 06:32:14;;;;;;;39.90;14.17;;;-2.50;64.70;;;;;;4971993;28;46613;-62
2022/12/18 06:34:40;;;;;;;32.30;13.77;;;-2.50;64.90;;;;;;4971627;28;46490;-62
2022/12/18 06:37:06;;;;;;;42.77;15.30;;;-2.50;65.00;;;;;;4973085;28;45901;-64
2022/12/18 06:39:31;;;;;;;34.17;14.60;;;-2.60;64.80;;;;;;4972134;28;46855;-64
2022/12/18 06:41:57;;;;;;;35.97;15.10;;;-2.60;64.90;;;;;;4976946;28;46594;-64
2022/12/18 06:44:22;;;;;;;28.17;13.10;;;-2.70;65.40;;;;;;4971912;28;46485;-63
2022/12/18 06:46:48;;;;;;;35.60;13.83;;;-2.80;65.40;;;;;;4971792;28;46340;-64
2022/12/18 06:49:15;;;;;;;37.67;14.50;;;-2.80;65.80;;;;;;4969011;28;46373;-62
2022/12/18 06:51:41;;;;;;;35.40;14.48;;;-2.80;65.70;;;;;;4971013;28;46352;-63
2022/12/18 06:54:07;;;;;;;28.00;13.70;;;-2.70;65.60;;;;;;4969767;28;45793;-63
2022/12/18 06:56:33;;;;;;;33.53;13.33;;;-3.00;65.80;;;;;;4973628;28;46327;-63
2022/12/18 06:58:59;;;;;;;32.70;14.70;;;-2.90;66.20;;;;;;4970105;28;46396;-62
2022/12/18 07:01:24;;;;;;;38.47;14.63;;;-3.00;66.10;;;;;;4978600;28;46629;-63
2022/12/18 07:03:55;;;;;;;30.37;13.30;;;-3.00;66.20;;;;;;4970871;28;46559;-63
2022/12/18 07:06:24;;;;;;;38.35;16.33;;;-2.90;65.80;;;;;;4970790;28;46500;-64
2022/12/18 07:08:50;;;;;;;36.95;15.75;;;-2.80;65.70;;;;;;4975179;28;46482;-63
2022/12/18 07:11:17;;;;;;;35.38;14.30;;;-2.80;65.60;;;;;;4971332;28;46430;-63
2022/12/18 07:13:43;;;;;;;37.53;14.73;;;-2.80;65.40;;;;;;4973101;28;45842;-63
2022/12/18 07:16:14;;;;;;;35.45;14.48;;;-2.30;65.60;;;;;;4976166;28;46026;-64
2022/12/18 07:18:40;;;;;;;34.60;14.18;;;-2.70;64.90;;;;;;4972561;28;46490;-63
2022/12/18 07:21:11;;;;;;;35.40;13.13;;;-2.70;63.50;;;;;;4971581;28;46422;-63
2022/12/18 07:23:36;;;;;;;34.10;14.25;;;-2.70;64.60;;;;;;4968812;28;46529;-62
2022/12/18 07:26:04;;;;;;;37.10;16.67;;;-2.80;64.80;;;;;;4970801;28;45841;-63
2022/12/18 07:28:31;;;;;;;38.63;16.70;;;-2.50;65.30;;;;;;4972479;28;46320;-62
2022/12/18 07:30:57;;;;;;;42.15;17.30;;;-2.70;64.10;;;;;;4970090;28;46738;-62
2022/12/18 07:33:22;;;;;;;33.03;13.10;;;-2.70;65.20;;;;;;4973484;28;46443;-63
2022/12/18 07:35:48;;;;;;;31.00;12.47;;;-2.60;65.00;;;;;;4970038;28;46503;-63
2022/12/18 07:38:13;;;;;;;37.30;13.67;;;-2.60;64.70;;;;;;4971313;28;47117;-64
2022/12/18 07:40:39;;;;;;;33.67;13.80;;;-2.60;64.60;;;;;;4971051;28;46416;-62
2022/12/18 07:43:04;;;;;;;33.30;14.90;;;-2.50;64.50;;;;;;4971680;28;46675;-62
2022/12/18 07:45:30;;;;;;;39.60;14.73;;;-2.50;64.40;;;;;;4973021;28;46664;-62
2022/12/18 07:47:56;;;;;;;34.00;13.90;;;-2.50;64.30;;;;;;4970139;28;46459;-63
2022/12/18 07:50:21;;;;;;;35.33;15.67;;;-2.40;64.30;;;;;;4973044;28;46402;-62
2022/12/18 07:52:47;;;;;;;38.20;14.53;;;-2.30;65.20;;;;;;4977409;28;46475;-63
2022/12/18 07:55:13;;;;;;;30.67;12.40;;;-2.30;64.00;;;;;;4969885;28;46487;-63
2022/12/18 07:57:38;;;;;;;37.83;14.67;;;-2.30;63.80;;;;;;4971962;28;46248;-62
2022/12/18 08:00:04;;;;;;;32.13;14.40;;;-2.20;63.60;;;;;;4971214;28;46499;-62
2022/12/18 08:02:31;;;;;;;35.42;14.60;;;-2.10;63.50;;;;;;4971147;28;46404;-63
2022/12/18 08:04:57;;;;;;;38.67;16.40;;;-2.10;63.30;;;;;;4970128;28;46069;-63
2022/12/18 08:07:23;;;;;;;42.67;16.33;;;-2.00;63.20;;;;;;4969323;28;46579;-63
2022/12/18 08:09:48;;;;;;;32.13;13.20;;;-1.90;62.90;;;;;;4969359;28;46406;-63
2022/12/18 08:12:14;;;;;;;38.43;14.80;;;-1.80;62.90;;;;;;4970630;28;46388;-62
2022/12/18 08:14:40;;;;;;;37.90;15.87;;;-1.90;63.00;;;;;;4969248;28;46685;-64
2022/12/18 08:17:05;;;;;;;29.17;12.70;;;-1.80;63.00;;;;;;4972406;28;46906;-62
2022/12/18 08:19:31;;;;;;;37.13;15.03;;;-1.80;63.00;;;;;;4969908;28;46309;-63
2022/12/18 08:21:56;;;;;;;35.10;15.40;;;-1.80;62.70;;;;;;4970358;28;46439;-63
2022/12/18 08:24:22;;;;;;;28.10;12.13;;;-1.70;62.70;;;;;;4970846;28;46373;-63
2022/12/18 08:26:48;;;;;;;28.30;13.30;;;-1.50;62.40;;;;;;4969470;28;46329;-63
2022/12/18 08:29:13;;;;;;;34.67;13.53;;;-1.70;61.30;;;;;;4969606;28;46399;-62
2022/12/18 08:31:39;;;;;;;34.10;15.10;;;-1.70;62.50;;;;;;4970645;28;45874;-64
2022/12/18 08:34:05;;;;;;;35.90;16.07;;;-1.70;62.40;;;;;;4972202;28;46218;-64
2022/12/18 08:36:30;;;;;;;34.20;15.17;;;-1.60;62.10;;;;;;4986090;28;47280;-62
2022/12/18 08:38:56;;;;;;;29.27;14.00;;;-1.60;61.90;;;;;;4971617;28;46348;-62
2022/12/18 08:41:22;;;;;;;36.25;14.48;;;-1.50;62.40;;;;;;4973441;28;46413;-62
2022/12/18 08:46:36;;;;;;;34.80;14.85;;;-1.70;62.90;;;;;;4972004;28;46829;-62
2022/12/18 08:49:02;;;;;;;35.95;15.77;;;-1.80;61.90;;;;;;4969175;28;46664;-63
2022/12/18 08:51:28;;;;;;;56.85;23.77;;;-1.70;63.20;;;;;;4971040;28;45875;-62
2022/12/18 08:53:54;;;;;;;46.67;19.90;;;-1.40;62.60;;;;;;4971035;28;46324;-63
2022/12/18 08:56:19;;;;;;;36.50;15.93;;;-1.30;62.30;;;;;;4968838;28;46270;-62
2022/12/18 08:58:45;;;;;;;34.50;14.23;;;-1.10;61.60;;;;;;4965910;28;46391;-63
2022/12/18 09:01:12;;;;;;;28.90;14.13;;;-0.90;60.10;;;;;;4967045;28;46586;-62
2022/12/18 09:03:38;;;;;;;36.45;15.60;;;-0.90;61.00;;;;;;4968221;28;46479;-63
2022/12/18 09:06:04;;;;;;;31.95;15.15;;;-1.00;61.10;;;;;;4966592;28;47381;-65
2022/12/18 09:08:30;;;;;;;30.52;14.15;;;-1.20;61.50;;;;;;4966410;28;46129;-62
2022/12/18 09:10:56;;;;;;;32.37;13.50;;;-1.30;61.10;;;;;;4965065;28;46397;-62
2022/12/18 09:13:22;;;;;;;41.60;17.85;;;-1.30;62.20;;;;;;4965846;28;46531;-63
2022/12/18 09:15:50;;;;;;;29.23;13.15;;;-1.30;62.30;;;;;;4964857;28;46622;-62
2022/12/18 09:18:17;;;;;;;30.73;14.65;;;-1.20;62.40;;;;;;4967965;28;46577;-63
2022/12/18 09:20:43;;;;;;;32.65;13.45;;;-1.30;62.50;;;;;;4971531;28;46802;-64
2022/12/18 09:23:09;;;;;;;36.20;13.97;;;-1.30;62.40;;;;;;4969621;28;45910;-63
2022/12/18 09:25:35;;;;;;;34.38;14.30;;;-1.30;62.50;;;;;;4969997;28;47567;-63
2022/12/18 09:28:12;;;;;;;28.58;13.75;;;-1.20;61.40;;;;;;4968025;28;46745;-63
2022/12/18 09:30:39;;;;;;;33.85;14.43;;;-1.20;61.10;;;;;;4967286;28;46425;-63
2022/12/18 09:33:05;;;;;;;31.90;14.57;;;-1.20;61.20;;;;;;4967712;28;46080;-64
2022/12/18 09:35:30;;;;;;;30.30;14.30;;;-1.20;61.10;;;;;;4967265;28;46487;-62
2022/12/18 09:37:56;;;;;;;29.37;13.10;;;-1.30;61.30;;;;;;4967103;28;45856;-62
2022/12/18 09:40:25;;;;;;;34.67;14.60;;;-1.30;61.30;;;;;;4966438;28;46167;-62
2022/12/18 09:42:59;;;;;;;35.85;15.40;;;-1.40;60.90;;;;;;4967978;28;46548;-63
2022/12/18 09:45:25;;;;;;;34.55;15.02;;;-1.30;60.60;;;;;;4967475;28;46519;-63
2022/12/18 09:47:53;;;;;;;34.25;14.73;;;-1.10;60.30;;;;;;4969408;28;46493;-63
2022/12/18 09:50:33;;;;;;;29.42;13.60;;;-1.20;59.70;;;;;;4966918;28;46395;-62
2022/12/18 09:53:04;;;;;;;29.05;13.93;;;-1.20;60.20;;;;;;4966620;28;45931;-63
2022/12/18 09:55:39;;;;;;;32.38;14.23;;;-1.00;59.90;;;;;;4967841;28;47278;-64
2022/12/18 09:58:26;;;;;;;44.88;19.38;;;-1.00;59.60;;;;;;4967835;28;46374;-62
2022/12/18 10:00:53;;;;;;;32.78;15.52;;;-1.10;59.50;;;;;;4967132;28;46571;-64
2022/12/18 10:03:19;;;;;;;29.73;13.95;;;-1.00;59.70;;;;;;4969546;28;46479;-63
2022/12/18 10:06:06;;;;;;;32.60;14.80;;;-0.90;59.60;;;;;;4966185;28;46587;-65
2022/12/18 10:08:58;;;;;;;35.03;14.40;;;-1.00;59.60;;;;;;4968009;28;46081;-63
2022/12/18 10:11:45;;;;;;;37.17;14.52;;;-0.80;59.60;;;;;;4962549;28;46676;-63
2022/12/18 10:14:20;;;;;;;31.15;13.18;;;-0.80;59.50;;;;;;4968114;28;46541;-63
2022/12/18 10:16:51;;;;;;;30.35;14.50;;;-0.70;59.40;;;;;;4965811;28;46497;-64
2022/12/18 10:19:29;;;;;;;34.83;15.68;;;-0.70;59.40;;;;;;4970656;28;46745;-64
2022/12/18 10:22:13;;;;;;;31.45;13.73;;;-0.50;58.80;;;;;;4964504;28;46567;-64
2022/12/18 10:25:00;;;;;;;33.63;15.68;;;-0.40;58.30;;;;;;4967297;28;46566;-64
2022/12/18 10:27:27;;;;;;;32.33;14.18;;;-0.20;57.80;;;;;;4966863;28;46521;-64
2022/12/18 10:29:53;;;;;;;34.30;14.48;;;0.10;57.00;;;;;;4966896;28;46593;-64
2022/12/18 10:32:24;;;;;;;39.10;17.20;;;0.30;57.20;;;;;;4964261;28;46803;-66
2022/12/18 10:34:51;;;;;;;26.88;12.68;;;0.30;56.20;;;;;;4962482;28;46632;-64
2022/12/18 10:37:21;;;;;;;27.13;12.93;;;0.40;55.70;;;;;;4964794;28;48313;-65
2022/12/18 10:40:15;;;;;;;32.65;13.50;;;0.40;55.70;;;;;;4963021;28;46464;-65
2022/12/18 10:42:43;;;;;;;26.25;13.00;;;0.50;55.20;;;;;;4965228;28;45817;-63
2022/12/18 10:45:13;;;;;;;34.25;15.73;;;0.50;54.80;;;;;;4968042;28;46519;-63
2022/12/18 10:47:48;;;;;;;34.75;15.52;;;0.70;54.80;;;;;;4972242;28;47234;-63
2022/12/18 10:50:31;;;;;;;27.58;14.63;;;0.90;53.90;;;;;;4967091;28;46667;-64
2022/12/18 10:52:59;;;;;;;29.92;15.13;;;0.80;53.80;;;;;;4967323;28;46498;-63
2022/12/18 10:55:39;;;;;;;26.23;13.32;;;0.90;53.70;;;;;;4984492;28;46581;-63
2022/12/18 10:58:25;;;;;;;26.83;13.27;;;0.90;53.20;;;;;;4966775;28;46428;-63
2022/12/18 11:01:19;;;;;;;26.00;13.23;;;0.70;53.00;;;;;;4977301;28;46977;-63
2022/12/18 11:03:47;;;;;;;31.00;13.80;;;0.70;53.10;;;;;;4964279;28;46395;-62
2022/12/18 11:06:15;;;;;;;32.08;14.50;;;0.70;53.30;;;;;;4972389;28;46368;-63
2022/12/18 11:08:43;;;;;;;27.85;12.63;;;0.60;53.80;;;;;;4971830;28;46426;-63
2022/12/18 11:11:23;;;;;;;28.08;13.32;;;0.80;52.60;;;;;;4970345;28;46108;-62
2022/12/18 11:14:20;;;;;;;29.80;14.00;;;0.80;53.40;;;;;;4972201;28;46548;-62
2022/12/18 11:16:48;;;;;;;35.83;13.45;;;0.90;53.40;;;;;;4969279;28;46433;-65
2022/12/18 11:19:40;;;;;;;30.73;14.02;;;1.00;53.00;;;;;;4970560;28;47619;-63
2022/12/18 11:22:31;;;;;;;26.77;12.27;;;1.10;52.90;;;;;;4970318;28;46460;-63
2022/12/18 11:25:18;;;;;;;26.65;11.80;;;1.20;52.60;;;;;;4970388;28;45951;-64
2022/12/18 11:27:56;;;;;;;31.20;15.20;;;1.00;52.40;;;;;;4972611;28;46425;-64
2022/12/18 11:30:35;;;;;;;25.98;12.07;;;1.00;52.90;;;;;;4973147;28;46638;-63
2022/12/18 11:33:10;;;;;;;32.78;14.23;;;1.00;53.30;;;;;;4970100;28;46768;-62
2022/12/18 11:35:53;;;;;;;28.45;12.88;;;1.20;52.90;;;;;;4972383;28;46479;-65
2022/12/18 11:38:36;;;;;;;27.55;13.25;;;1.30;52.70;;;;;;4973806;28;46556;-64
2022/12/18 11:42:08;;;;;;;28.98;13.30;;;0.90;52.40;;;;;;4970071;28;46434;-62
2022/12/18 11:44:14;;;;;;;37.40;17.35;;;0.80;53.50;;;;;;4968492;28;46393;-63
2022/12/18 11:46:49;;;;;;;32.47;13.70;;;0.70;53.70;;;;;;4971857;28;45892;-63
2022/12/18 11:49:20;;;;;;;32.17;14.80;;;0.80;53.40;;;;;;4970439;28;45920;-62
2022/12/18 11:52:09;;;;;;;32.20;13.38;;;0.80;53.60;;;;;;4968004;28;46501;-61
2022/12/18 11:54:36;;;;;;;29.45;13.18;;;0.80;53.30;;;;;;4971030;28;47096;-62
2022/12/18 11:57:46;;;;;;;33.67;17.33;;;0.90;53.10;;;;;;4970823;28;46494;-62
2022/12/18 12:00:19;;;;;;;31.20;14.82;;;0.90;52.90;;;;;;4973158;28;46403;-62
2022/12/18 12:03:03;;;;;;;28.13;12.98;;;0.80;53.30;;;;;;4971926;28;46824;-62
2022/12/18 12:05:44;;;;;;;28.83;14.75;;;0.60;52.70;;;;;;4987274;28;46645;-62
2022/12/18 12:08:19;;;;;;;32.78;15.60;;;0.50;53.30;;;;;;4968623;28;46394;-62
2022/12/18 12:11:15;;;;;;;30.13;14.63;;;0.50;53.20;;;;;;4971219;28;46397;-62
2022/12/18 12:14:02;;;;;;;38.30;18.75;;;0.40;53.90;;;;;;4970738;28;46523;-61
2022/12/18 12:16:45;;;;;;;38.10;18.40;;;0.60;53.30;;;;;;4970565;28;46516;-64
2022/12/18 12:19:47;;;;;;;33.20;15.93;;;0.60;53.20;;;;;;4967499;28;46510;-64
2022/12/18 12:22:44;;;;;;;30.73;12.77;;;0.40;53.40;;;;;;4974454;28;45854;-64
2022/12/18 12:25:50;;;;;;;36.35;15.07;;;0.60;53.10;;;;;;4968903;28;46507;-62
2022/12/18 12:28:40;;;;;;;40.83;17.95;;;0.80;52.70;;;;;;4970676;28;46212;-63
2022/12/18 12:31:43;;;;;;;33.13;14.98;;;0.70;52.80;;;;;;4971671;28;46651;-63
2022/12/18 12:34:23;;;;;;;32.65;14.43;;;0.50;52.70;;;;;;4965955;28;46599;-63
2022/12/18 12:37:07;;;;;;;30.25;13.60;;;0.20;53.00;;;;;;4973832;28;47561;-63
2022/12/18 12:39:40;;;;;;;31.08;15.27;;;0.00;54.20;;;;;;4975967;28;46653;-63
2022/12/18 12:45:05;;;;;;;29.13;14.57;;;0.50;53.90;;;;;;4970938;28;46431;-64
2022/12/18 12:47:38;;;;;;;31.20;16.10;;;1.00;53.10;;;;;;4968529;28;46445;-64
2022/12/18 12:50:12;;;;;;;33.78;15.98;;;0.80;53.00;;;;;;4969367;28;46403;-64
2022/12/18 12:52:45;;;;;;;27.85;13.23;;;0.80;53.10;;;;;;4970540;28;46554;-63
2022/12/18 12:55:29;;;;;;;29.73;13.95;;;0.90;53.00;;;;;;4972325;28;46509;-63
2022/12/18 12:57:57;;;;;;;28.73;12.20;;;0.70;51.60;;;;;;4970700;28;46566;-61